Latest Weather Observations for Yampi Sound (Defence)

IDW60801

Issued at 1:33 pm WST Tuesday 10 December 2019 (issued every 10 minutes, with the page automatically refreshed every 10 minutes)

About weather observations | Map of weather stations | Latest weather observations for WA | Other Formats
Station Details ID: 003108 Name: YAMPI SOUND (DEFENCE) Lat: -16.77 Lon: 123.98 Height: 41.33 m
Data from the previous 72 hours. | See also: Recent months at Yampi Sound (Defence)
Date/Time
WST
Temp
°C
App
Temp
°C
Dew
Point
°C
Rel
Hum
%
Delta-T
°C
Wind Press
QNH
hPa
Press
MSL
hPa
Rain since
9am
mm
Dir  Spd
km/h
Gust
km/h
Spd
kts
Gust
kts
10/01:30pm 37.7 37.6 19.6 34 12.1 WSW 19 32 10 17 1009.5 - 0.0
10/01:00pm 40.2 41.5 20.8 32 13.3 SW 15 24 8 13 1009.5 - 0.0
10/12:30pm 39.1 40.0 20.8 34 12.5 SW 17 24 9 13 1010.2 - 0.0
10/12:00pm 38.7 40.8 23.1 41 10.9 SW 17 30 9 16 1010.5 - 0.0
10/11:30am 39.0 41.9 24.5 43 10.3 SW 17 30 9 16 1010.6 - 0.0
10/11:00am 39.6 40.7 17.1 26 14.7 WSW 7 19 4 10 1011.0 - 0.0
10/10:30am 39.2 40.4 16.8 27 14.5 NNE 6 15 3 8 1011.2 - 0.0
10/10:00am 37.9 39.9 17.8 30 13.1 WNW 4 11 2 6 1011.5 - 0.0
10/09:30am 37.3 39.3 18.8 33 12.2 NNW 6 11 3 6 1012.0 - 0.0
10/09:00am 35.9 38.8 21.0 42 10.1 N 7 13 4 7 1012.1 - 0.0
10/08:30am 34.7 37.4 21.4 46 9.0 N 9 17 5 9 1012.5 - 0.0
10/08:00am 33.8 37.3 22.9 53 7.5 N 9 15 5 8 1012.5 - 0.0
10/07:30am 32.7 37.0 23.6 58 6.3 NNW 7 15 4 8 1012.5 - 0.0
10/07:00am 31.5 36.0 23.9 64 5.3 NNW 7 13 4 7 1012.4 - 0.0
10/06:30am 31.1 35.8 24.0 66 4.9 NW 6 13 3 7 1012.5 - 0.0
10/06:00am 28.6 33.5 23.7 75 3.4 NW 4 6 2 3 1012.6 - 0.0
10/05:30am 28.3 32.5 23.2 74 3.5 SW 6 9 3 5 1012.4 - 0.0
10/05:00am 28.4 32.8 23.5 75 3.4 SW 6 7 3 4 1013.0 - 0.0
10/04:30am 28.9 33.5 23.1 71 4.0 S 4 7 2 4 1013.0 - 0.0
10/04:00am 29.0 33.6 23.2 71 4.0 S 4 7 2 4 1012.7 - 0.0
10/03:30am 30.1 33.2 21.5 60 5.8 S 7 13 4 7 1012.3 - 0.0
10/03:00am 30.9 31.2 17.9 45 8.3 SE 13 20 7 11 1012.0 - 0.0
10/02:30am 30.4 31.8 20.3 54 6.7 ESE 13 30 7 16 1012.1 - 0.0
10/02:27am 30.1 32.5 20.9 57 6.1 E 9 28 5 15 1011.9 - 0.0
10/02:00am 30.1 32.4 19.5 53 6.9 NNE 6 9 3 5 1009.9 - 0.0
10/01:30am 30.5 32.7 19.2 51 7.4 NNE 6 7 3 4 1009.8 - 0.0
10/01:00am 31.5 33.1 19.2 48 8.1 SW 9 13 5 7 1010.4 - 0.0
10/12:30am 30.4 32.6 22.6 63 5.3 N 15 28 8 15 1010.1 - 0.0
10/12:00am 30.2 32.5 22.1 62 5.5 N 13 28 7 15 1010.8 - 0.0
 
Date/Time
WST
Temp
°C
App
Temp
°C
Dew
Point
°C
Rel
Hum
%
Delta-T
°C
Wind Press
QNH
hPa
Press
MSL
hPa
Rain since
9am
mm
Dir  Spd
km/h
Gust
km/h
Spd
kts
Gust
kts
09/11:30pm 30.4 32.9 21.8 60 5.8 N 11 20 6 11 1011.8 - 0.0
09/11:00pm 30.4 33.4 22.6 63 5.3 NNE 11 28 6 15 1012.9 - 0.0
09/10:30pm 30.8 34.1 23.2 64 5.2 NNE 11 22 6 12 1013.6 - 0.0
09/10:00pm 30.9 33.8 23.8 66 4.9 NNE 15 28 8 15 1013.9 - 0.0
09/09:30pm 30.8 33.5 23.5 65 5.0 N 15 22 8 12 1013.3 - 0.0
09/09:00pm 30.6 34.4 24.7 71 4.1 N 13 28 7 15 1013.5 - 0.0
09/08:30pm 30.7 34.6 24.8 71 4.1 N 13 22 7 12 1012.8 - 0.0
09/08:00pm 31.5 34.9 24.6 67 4.8 N 15 24 8 13 1011.8 - 0.0
09/07:30pm 32.4 35.6 21.6 53 7.3 N 7 11 4 6 1011.3 - 0.0
09/07:00pm 32.9 36.1 22.4 54 7.2 NNW 9 17 5 9 1010.5 - 0.0
09/06:30pm 34.0 35.7 18.5 40 10.1 NW 7 13 4 7 1009.8 - 0.0
09/06:00pm 35.1 36.1 16.9 34 11.7 NNW 7 13 4 7 1009.4 - 0.0
09/05:30pm 36.9 37.0 15.4 28 13.6 NW 9 17 5 9 1008.8 - 0.0
09/05:00pm 38.3 38.1 14.8 25 14.8 NW 9 17 5 9 1008.5 - 0.0
09/04:30pm 38.6 38.5 17.9 29 13.6 WNW 15 28 8 15 1007.7 - 0.0
09/04:00pm 39.1 40.2 18.9 31 13.5 NW 11 22 6 12 1007.9 - 0.0
09/03:30pm 38.8 40.4 21.5 37 11.9 NNW 15 24 8 13 1008.1 - 0.0
09/03:00pm 39.9 42.5 22.0 35 12.4 NNW 11 20 6 11 1008.4 - 0.0
09/02:30pm 40.0 41.6 20.7 33 13.2 NW 13 26 7 14 1008.6 - 0.0
09/02:00pm 41.5 41.5 12.4 18 17.9 SW 4 9 2 5 1008.9 - 0.0
09/01:30pm 41.3 40.7 12.2 18 17.8 NNW 7 13 4 7 1009.4 - 0.0
09/01:00pm 41.0 40.3 12.0 18 17.7 NW 7 17 4 9 1009.9 - 0.0
09/12:30pm 40.4 39.8 12.3 19 17.2 NW 7 15 4 8 1010.4 - 0.0
09/12:00pm 39.7 38.9 11.7 19 17.0 WNW 7 13 4 7 1010.9 - 0.0
09/11:30am 38.7 38.5 15.7 25 14.7 N 11 20 6 11 1011.4 - 0.0
09/11:00am 37.7 38.9 19.1 33 12.4 N 11 19 6 10 1011.9 - 0.0
09/10:30am 36.9 39.4 21.1 40 10.8 NNW 9 19 5 10 1012.3 - 0.0
09/10:00am 36.1 39.1 22.6 45 9.3 N 11 20 6 11 1012.8 - 0.0
09/09:30am 35.4 38.3 22.4 47 9.0 NNW 11 20 6 11 1013.1 - 0.0
09/09:00am 34.1 38.1 23.8 55 7.2 N 9 17 5 9 1013.4 - 0.0
09/08:30am 33.6 37.1 23.6 56 7.0 N 11 20 6 11 1013.7 - 0.0
09/08:00am 32.6 37.0 23.8 59 6.1 N 7 17 4 9 1013.7 - 0.0
09/07:30am 31.6 36.3 24.0 64 5.3 NNW 6 13 3 7 1013.6 - 0.0
09/07:00am 30.8 35.4 24.7 70 4.3 NNW 9 15 5 8 1013.3 - 0.0
09/06:30am 30.0 35.4 25.1 75 3.5 NW 6 15 3 8 1012.9 - 0.0
09/06:00am 29.2 35.3 25.6 81 2.5 W 4 6 2 3 1012.8 - 0.0
09/05:30am 28.0 34.3 25.4 86 1.8 NNW 2 6 1 3 1012.5 - 0.0
09/05:00am 27.1 33.4 24.7 87 1.7 CALM 0 2 0 1 1011.9 - 0.0
09/04:30am 27.6 33.8 24.6 84 2.1 CALM 0 0 0 0 1011.4 - 0.0
09/04:00am 28.0 33.5 24.6 82 2.4 N 4 7 2 4 1011.1 - 0.0
09/03:30am 28.3 33.2 24.7 81 2.5 N 7 11 4 6 1011.0 - 0.0
09/03:00am 28.3 33.2 24.3 79 2.8 NNE 6 9 3 5 1010.7 - 0.0
09/02:30am 28.6 33.4 24.2 77 3.1 N 6 13 3 7 1010.3 - 0.0
09/02:00am 28.9 33.0 23.3 72 3.8 N 7 11 4 6 1010.1 - 0.0
09/01:30am 28.7 32.9 23.1 71 3.8 NNE 6 11 3 6 1010.2 - 0.0
09/01:00am 29.1 33.7 23.1 70 4.1 N 4 7 2 4 1010.1 - 0.0
09/12:30am 29.4 33.9 22.9 68 4.4 NNW 4 6 2 3 1010.3 - 0.0
09/12:00am 30.1 34.1 22.8 65 5.0 NNW 6 13 3 7 1010.7 - 0.0
 
Date/Time
WST
Temp
°C
App
Temp
°C
Dew
Point
°C
Rel
Hum
%
Delta-T
°C
Wind Press
QNH
hPa
Press
MSL
hPa
Rain since
9am
mm
Dir  Spd
km/h
Gust
km/h
Spd
kts
Gust
kts
08/11:30pm 30.6 34.0 23.3 65 5.0 N 11 22 6 12 1011.0 - 0.0
08/11:00pm 30.6 33.8 23.0 64 5.2 N 11 22 6 12 1011.4 - 0.0
08/10:30pm 30.7 34.2 23.6 66 4.9 N 11 24 6 13 1011.7 - 0.0
08/10:00pm 31.0 34.5 23.6 64 5.1 N 11 22 6 12 1011.7 - 0.0
08/09:30pm 31.1 35.4 23.7 64 5.1 N 7 17 4 9 1011.5 - 0.0
08/09:00pm 31.3 36.0 23.9 64 5.2 N 6 9 3 5 1011.2 - 0.0
08/08:30pm 31.7 35.8 24.0 63 5.4 N 9 17 5 9 1011.1 - 0.0
08/08:00pm 32.2 36.1 24.3 63 5.5 NNW 11 22 6 12 1010.9 - 0.0
08/07:30pm 33.1 35.6 23.1 55 6.9 NNW 15 28 8 15 1010.2 - 0.0
08/07:00pm 33.8 36.9 22.9 53 7.5 NNE 11 24 6 13 1010.1 - 0.0
08/06:30pm 34.8 38.7 21.8 46 8.9 N 4 11 2 6 1009.1 - 0.0
08/06:00pm 35.4 38.4 20.9 42 9.8 N 6 9 3 5 1008.9 - 0.0
08/05:30pm 37.9 39.2 19.3 33 12.4 NW 11 20 6 11 1008.5 - 0.0
08/05:00pm 41.3 40.1 10.4 16 18.5 W 7 17 4 9 1007.7 - 0.0
08/04:30pm 41.8 39.7 9.9 15 19.0 WSW 11 20 6 11 1007.2 - 0.0
08/04:00pm 41.8 39.7 9.9 15 19.0 W 11 19 6 10 1007.0 - 0.0
08/03:30pm 42.2 39.6 9.2 14 19.5 WSW 13 20 7 11 1007.2 - 0.0
08/03:00pm 42.7 40.4 10.6 15 19.4 SW 13 20 7 11 1007.6 - 0.0
08/02:30pm 42.1 40.4 11.1 16 18.8 WSW 11 20 6 11 1008.0 - 0.0
08/02:00pm 41.7 40.1 11.7 17 18.3 WSW 11 20 6 11 1008.6 - 0.0
08/01:30pm 41.8 40.4 13.4 18 17.7 SW 13 22 7 12 1009.1 - 0.0
08/01:00pm 40.7 39.8 12.6 19 17.3 WSW 9 20 5 11 1009.6 - 0.0
08/12:30pm 40.0 38.9 14.2 21 16.2 SSW 13 22 7 12 1010.1 - 0.0
08/12:00pm 39.6 38.8 15.2 23 15.5 SW 13 24 7 13 1010.5 - 0.0
08/11:30am 39.6 38.5 15.2 23 15.5 SSW 15 26 8 14 1010.9 - 0.0
08/11:00am 39.1 38.1 15.5 25 15.0 SSW 15 24 8 13 1011.2 - 0.0
08/10:30am 39.3 37.4 12.9 20 16.2 SSW 15 20 8 11 1011.5 - 0.0
08/10:00am 38.6 37.1 13.1 22 15.7 SSW 13 20 7 11 1011.7 - 0.0
08/09:30am 37.5 36.3 12.8 22 15.1 SW 11 17 6 9 1012.0 - 0.0
08/09:00am 36.5 36.4 15.0 27 13.5 SSW 9 17 5 9 1012.5 - 0.0
08/08:30am 36.3 36.7 15.4 28 13.2 WSW 7 15 4 8 1012.7 - 0.0
08/08:00am 35.1 36.5 16.4 32 11.9 NW 4 9 2 5 1012.7 - 0.0
08/07:30am 33.2 35.8 17.4 39 10.1 CALM 0 2 0 1 1012.7 - 0.0
08/07:00am 31.2 35.0 20.2 52 7.3 CALM 0 0 0 0 1012.3 - 0.0
08/06:30am 30.9 35.0 20.8 55 6.7 CALM 0 0 0 0 1012.1 - 0.0
08/06:00am 26.9 31.8 22.3 76 3.1 CALM 0 0 0 0 1011.8 - 0.0
08/05:30am 25.2 30.0 22.1 83 2.1 CALM 0 0 0 0 1011.5 - 0.0
08/05:00am 25.5 30.1 21.8 80 2.5 CALM 0 0 0 0 1011.2 - 0.0
08/04:30am 25.8 30.3 21.5 77 2.9 CALM 0 0 0 0 1010.8 - 0.0
08/04:00am 26.2 30.5 21.2 74 3.3 CALM 0 0 0 0 1010.5 - 0.0
08/03:30am 26.7 31.2 21.5 73 3.5 CALM 0 0 0 0 1010.2 - 0.0
08/03:00am 27.5 32.0 21.5 70 4.0 CALM 0 0 0 0 1010.1 - 0.0
08/02:30am 27.9 32.2 21.2 67 4.5 CALM 0 2 0 1 1010.0 - 0.0
08/02:00am 28.8 32.5 20.0 59 5.8 CALM 0 0 0 0 1009.7 - 0.0
08/01:30am 30.7 33.9 19.7 52 7.2 W 2 6 1 3 1009.5 - 0.0
08/01:00am 31.3 33.4 19.3 49 7.9 WSW 7 13 4 7 1009.3 - 0.0
08/12:30am 31.9 33.5 19.2 47 8.3 WSW 9 15 5 8 1009.6 - 0.0
08/12:00am 32.3 33.9 19.2 46 8.6 WSW 9 15 5 8 1009.9 - 0.0
 
Date/Time
WST
Temp
°C
App
Temp
°C
Dew
Point
°C
Rel
Hum
%
Delta-T
°C
Wind Press
QNH
hPa
Press
MSL
hPa
Rain since
9am
mm
Dir  Spd
km/h
Gust
km/h
Spd
kts
Gust
kts
07/11:30pm 33.0 34.0 18.7 42 9.3 WSW 11 22 6 12 1010.3 - 0.0
07/11:00pm 33.4 34.0 18.7 41 9.6 WSW 13 22 7 12 1010.3 - 0.0
07/10:30pm 33.3 35.4 20.1 45 8.8 W 9 19 5 10 1010.3 - 0.0
07/10:00pm 33.7 35.6 20.5 46 8.8 WSW 11 20 6 11 1010.4 - 0.0
07/09:30pm 34.0 35.4 19.6 42 9.5 W 11 17 6 9 1010.4 - 0.0
07/09:00pm 33.9 36.0 21.0 47 8.7 WSW 11 24 6 13 1010.7 - 0.0
07/08:30pm 33.9 36.2 21.3 47 8.5 W 11 22 6 12 1010.8 - 0.0
07/08:00pm 34.0 36.9 21.1 47 8.7 SW 7 15 4 8 1010.9 - 0.0
07/07:30pm 34.7 37.2 20.3 43 9.6 W 7 13 4 7 1010.0 - 0.0
07/07:00pm 35.4 38.0 20.5 41 10.0 WNW 7 15 4 8 1009.5 - 0.0
07/06:30pm 35.7 37.1 20.4 40 10.3 W 13 28 7 15 1009.4 - 0.0
07/06:00pm 36.8 37.9 18.8 34 11.9 WNW 11 20 6 11 1009.1 - 0.0
07/05:30pm 38.6 38.9 14.4 24 15.1 WSW 6 13 3 7 1008.6 - 0.0
07/05:00pm 40.2 40.6 13.7 21 16.5 WNW 4 6 2 3 1008.4 - 0.0
07/04:30pm 41.3 40.1 9.5 15 18.8 NW 6 9 3 5 1008.0 - 0.0
07/04:00pm 41.6 40.2 9.7 15 18.9 W 7 11 4 6 1008.1 - 0.0
07/03:30pm 41.4 40.1 11.4 17 18.2 W 9 20 5 11 1008.1 - 0.0
07/03:00pm 41.7 40.7 13.4 19 17.7 W 11 22 6 12 1008.0 - 0.0
07/02:30pm 41.5 40.0 13.2 19 17.6 SW 13 20 7 11 1008.5 - 0.0
07/02:00pm 41.4 40.2 13.9 20 17.3 WSW 13 20 7 11 1009.0 - 0.0

Other formats

Comma delimited format used in spreadsheet applications
http://www.bom.gov.au/fwo/IDW60801/IDW60801.95208.axf

JavaScript Object Notation format (JSON) in row-major order
http://www.bom.gov.au/fwo/IDW60801/IDW60801.95208.json

Data quality

Most of these data are generated automatically and are frequently updated. Quality checks on data are not normally performed. It is possible for incorrect values to appear. Refer to information at About Latest Weather Observations and please check the disclaimer before using these data.